Time;durP1;ratioP1;P1;durP2;ratioP2;P2;SDS_P1;SDS_P2;PMS_P1;PMS_P2;Temp;Humidity;BMP_temperature;BMP_pressure;BME280_temperature;BME280_humidity;BME280_pressure;Samples;Min_cycle;Max_cycle;Signal;HPM_P1;HPM_P2
2021/06/19 00:02:00;;;;;;;;;8.00;8.00;;;;;22.83;50.31;100989.59;4942536;28;45262;-57
2021/06/19 00:04:25;;;;;;;;;7.00;7.00;;;;;22.76;50.14;100996.28;4941378;28;45262;-57
2021/06/19 00:06:51;;;;;;;;;6.75;6.75;;;;;22.75;50.49;100999.94;4941975;28;46021;-57
2021/06/19 00:09:16;;;;;;;;;8.00;7.00;;;;;22.68;50.35;100984.22;4942637;28;45223;-57
2021/06/19 00:11:42;;;;;;;;;7.25;7.00;;;;;22.69;50.15;100988.63;4942337;28;45255;-58
2021/06/19 00:14:08;;;;;;;;;7.50;7.50;;;;;22.67;50.46;100990.53;4942420;28;45250;-57
2021/06/19 00:16:33;;;;;;;;;4.25;4.25;;;;;22.59;50.46;100990.16;4942295;28;46317;-56
2021/06/19 00:19:01;;;;;;;;;8.00;8.00;;;;;22.61;50.67;100988.22;4942297;28;45296;-57
2021/06/19 00:21:26;;;;;;;;;7.25;7.25;;;;;22.61;50.47;100990.06;4942057;28;45389;-56
2021/06/19 00:23:51;;;;;;;;;8.50;7.75;;;;;22.59;50.69;100997.31;4941679;28;45593;-57
2021/06/19 00:26:17;;;;;;;;;7.50;7.00;;;;;22.50;50.86;100980.00;4941170;28;46006;-56
2021/06/19 00:28:42;;;;;;;;;8.50;7.50;;;;;22.51;50.69;100984.41;4941989;28;45314;-56
2021/06/19 00:31:08;;;;;;;;;7.00;7.00;;;;;22.50;50.95;100998.72;4942197;28;45444;-56
2021/06/19 00:33:33;;;;;;;;;7.25;7.25;;;;;22.47;51.32;101002.47;4942273;28;45184;-56
2021/06/19 00:35:58;;;;;;;;;9.00;8.75;;;;;22.46;51.12;101002.56;4941688;28;45298;-56
2021/06/19 00:38:24;;;;;;;;;8.50;8.25;;;;;22.39;51.18;100997.56;4940734;28;45188;-57
2021/06/19 00:40:49;;;;;;;;;7.25;7.25;;;;;22.41;51.12;101000.16;4942043;28;45596;-57
2021/06/19 00:43:14;;;;;;;;;7.75;7.25;;;;;22.38;51.19;100998.53;4941906;28;45472;-56
2021/06/19 00:45:40;;;;;;;;;7.75;7.75;;;;;22.36;51.23;100997.75;4941796;28;45335;-56
2021/06/19 00:48:07;;;;;;;;;8.25;7.00;;;;;22.34;51.25;100999.63;4942079;28;45212;-55
2021/06/19 00:50:33;;;;;;;;;9.00;8.50;;;;;22.31;51.08;100990.91;4956629;28;45493;-56
2021/06/19 00:52:58;;;;;;;;;6.50;6.00;;;;;22.32;51.25;100998.00;4941865;28;45190;-55
2021/06/19 00:55:23;;;;;;;;;8.50;7.00;;;;;22.31;51.22;100996.28;4941562;28;46193;-55
2021/06/19 00:57:49;;;;;;;;;9.75;9.75;;;;;;;;4941567;28;45385;-56
2021/06/19 01:00:15;;;;;;;;;8.00;7.50;;;;;22.27;50.90;101000.09;4941896;28;45296;-56
2021/06/19 01:02:40;;;;;;;;;8.00;7.25;;;;;22.28;51.22;101009.84;4941668;28;45600;-55
2021/06/19 01:05:09;;;;;;;;;7.00;6.00;;;;;22.28;51.07;101007.19;4937157;28;46490;-55
2021/06/19 01:07:35;;;;;;;;;9.00;8.25;;;;;22.27;51.01;101005.44;4932942;28;45343;-55
2021/06/19 01:10:00;;;;;;;;;6.50;6.50;;;;;22.26;51.11;101012.59;4941577;28;45233;-55
2021/06/19 01:12:27;;;;;;;;;8.75;7.25;;;;;22.27;51.46;101013.47;4941602;28;45215;-56
2021/06/19 01:14:56;;;;;;;;;9.25;8.50;;;;;22.27;50.95;101005.44;4941369;28;46139;-55
2021/06/19 01:17:23;;;;;;;;;7.50;7.25;;;;;22.23;51.29;100988.69;4941494;28;45274;-55
2021/06/19 01:20:09;;;;;;;;;8.00;7.50;;;;;22.28;50.99;100991.13;4941563;28;45304;-55
2021/06/19 01:22:41;;;;;;;;;8.00;8.00;;;;;22.27;51.05;100984.88;4941140;28;45564;-55
2021/06/19 01:25:09;;;;;;;;;8.00;8.00;;;;;22.26;50.77;100977.81;4941424;28;46160;-57
2021/06/19 01:27:36;;;;;;;;;8.00;8.00;;;;;22.27;50.92;100981.34;4940722;28;45393;-55
2021/06/19 01:30:05;;;;;;;;;7.25;5.50;;;;;22.28;50.91;100994.63;4941529;28;45164;-56
2021/06/19 01:32:35;;;;;;;;;10.50;10.00;;;;;22.27;50.83;100989.38;4941150;28;45362;-55
2021/06/19 01:35:01;;;;;;;;;8.50;8.50;;;;;22.31;51.05;101004.31;4941367;28;46570;-55
2021/06/19 01:37:27;;;;;;;;;10.00;8.75;;;;;22.32;50.97;101006.88;4943279;28;45270;-56
2021/06/19 01:40:05;;;;;;;;;9.00;9.00;;;;;22.32;50.99;101012.22;4945155;28;45285;-56
2021/06/19 01:42:30;;;;;;;;;8.25;7.00;;;;;22.32;50.73;101006.03;4944432;28;45326;-55
2021/06/19 01:44:56;;;;;;;;;9.00;9.00;;;;;22.34;50.89;101012.13;4944490;28;45343;-57
2021/06/19 01:47:21;;;;;;;;;12.00;8.50;;;;;22.33;50.74;101005.94;4944507;28;45338;-56
2021/06/19 01:49:46;;;;;;;;;9.00;9.00;;;;;22.31;50.89;100999.78;4944812;28;45312;-56
2021/06/19 01:52:12;;;;;;;;;12.00;10.50;;;;;22.35;50.68;101006.72;4944302;28;45328;-57
2021/06/19 01:54:40;;;;;;;;;8.00;7.25;;;;;22.33;50.74;101005.94;4944570;28;45289;-57
2021/06/19 01:57:07;;;;;;;;;9.00;9.00;;;;;22.38;50.55;101008.38;4944448;28;45291;-56
2021/06/19 01:59:33;;;;;;;;;8.25;7.00;;;;;22.38;51.00;101011.91;4943212;28;45242;-57
2021/06/19 02:01:59;;;;;;;;;8.00;7.75;;;;;22.38;50.50;101006.56;4942826;28;45499;-58
2021/06/19 02:04:26;;;;;;;;;9.25;9.25;;;;;22.40;50.55;101009.13;4944240;28;45500;-57
2021/06/19 02:06:52;;;;;;;;;7.25;7.25;;;;;22.42;50.44;101001.88;4943853;28;45401;-57
2021/06/19 02:09:18;;;;;;;;;12.00;10.50;;;;;22.41;50.38;101000.16;4944269;28;45366;-56
2021/06/19 02:11:44;;;;;;;;;10.00;10.00;;;;;22.40;51.08;100995.75;4943877;28;45192;-57
2021/06/19 02:14:12;;;;;;;;;12.00;10.00;;;;;22.39;50.93;101007.44;4944016;28;46215;-58
2021/06/19 02:16:38;;;;;;;;;12.25;11.50;;;;;22.36;50.74;100999.53;4943886;28;45292;-58
2021/06/19 02:19:03;;;;;;;;;10.00;10.00;;;;;22.32;50.57;100987.28;4944022;28;45756;-57
2021/06/19 02:21:29;;;;;;;;;12.25;10.00;;;;;22.36;50.67;100996.84;4943724;28;45273;-57
2021/06/19 02:23:54;;;;;;;;;12.75;10.75;;;;;22.35;50.86;101003.16;4944041;28;45416;-57
2021/06/19 02:26:20;;;;;;;;;10.25;10.25;;;;;22.28;51.07;100993.78;4943903;28;45577;-56
2021/06/19 02:28:45;;;;;;;;;12.00;10.75;;;;;22.31;50.60;101002.47;4942507;28;45314;-56
2021/06/19 02:31:10;;;;;;;;;9.50;9.50;;;;;;;;4943769;28;45361;-58
2021/06/19 02:33:36;;;;;;;;;11.25;9.75;;;;;22.28;51.11;101001.81;4943968;28;45371;-57
2021/06/19 02:36:02;;;;;;;;;12.00;11.00;;;;;22.24;51.07;100991.28;4943491;28;45298;-57
2021/06/19 02:38:27;;;;;;;;;12.50;11.00;;;;;22.24;50.80;100993.09;4943791;28;45280;-57
2021/06/19 02:40:52;;;;;;;;;10.00;10.00;;;;;22.20;50.96;101007.59;4942411;28;45529;-57
2021/06/19 02:43:19;;;;;;;;;10.75;10.00;;;;;22.21;51.29;101010.22;4943611;28;45999;-57
2021/06/19 02:45:46;;;;;;;;;10.75;10.00;;;;;22.21;51.32;101023.59;4943660;28;45414;-58
2021/06/19 02:48:11;;;;;;;;;11.00;9.75;;;;;22.19;51.34;101025.47;4943529;28;45243;-57
2021/06/19 02:50:39;;;;;;;;;11.75;10.75;;;;;22.17;51.04;101026.53;4943200;28;45498;-56
2021/06/19 02:53:05;;;;;;;;;9.00;8.75;;;;;22.14;51.21;101007.97;4943596;28;47023;-57
2021/06/19 02:55:34;;;;;;;;;12.00;12.00;;;;;22.13;51.10;101012.47;4943390;28;45341;-58
2021/06/19 02:58:01;;;;;;;;;10.75;10.50;;;;;22.12;51.50;101012.56;4943588;28;45244;-56
2021/06/19 03:00:27;;;;;;;;;10.25;10.25;;;;;22.04;51.04;101013.00;4942123;28;45586;-56
2021/06/19 03:02:53;;;;;;;;;9.00;9.00;;;;;22.03;51.12;101013.97;4943324;28;46315;-57
2021/06/19 03:05:21;;;;;;;;;12.00;12.00;;;;;21.97;51.18;101012.47;4943096;28;45365;-57
2021/06/19 03:07:47;;;;;;;;;12.50;12.50;;;;;21.93;51.72;101024.31;4943690;28;45312;-56
2021/06/19 03:10:16;;;;;;;;;9.00;9.00;;;;;21.87;51.90;101019.31;4943314;28;45414;-57
2021/06/19 03:12:41;;;;;;;;;12.00;11.50;;;;;21.85;52.03;101022.09;4943167;28;46483;-57
2021/06/19 03:15:09;;;;;;;;;10.00;10.00;;;;;21.84;51.74;101022.19;4943172;28;45224;-59
2021/06/19 03:17:34;;;;;;;;;10.00;10.00;;;;;21.79;51.73;101011.75;4943238;28;45330;-58
2021/06/19 03:20:00;;;;;;;;;12.25;11.00;;;;;21.75;52.22;101007.53;4941597;28;45380;-61
2021/06/19 03:22:25;;;;;;;;;10.00;10.00;;;;;21.73;51.88;101007.59;4942939;28;45314;-57
2021/06/19 03:24:51;;;;;;;;;11.75;11.00;;;;;21.71;52.24;101020.22;4943104;28;45438;-57
2021/06/19 03:27:17;;;;;;;;;13.50;12.25;;;;;21.69;52.03;101019.41;4942836;28;45326;-58
2021/06/19 03:29:43;;;;;;;;;9.50;9.50;;;;;21.61;52.12;101000.28;4943131;28;45309;-57
2021/06/19 03:32:10;;;;;;;;;10.25;10.25;;;;;21.68;51.84;101015.00;4942837;28;46168;-56
2021/06/19 03:34:41;;;;;;;;;10.00;10.00;;;;;21.70;51.70;101017.63;4942958;28;45243;-57
2021/06/19 03:37:07;;;;;;;;;11.00;10.50;;;;;21.71;52.07;101017.53;4942629;28;45313;-57
2021/06/19 03:39:34;;;;;;;;;11.00;10.25;;;;;21.72;52.15;101013.91;4942787;28;45323;-57
2021/06/19 03:42:00;;;;;;;;;11.25;11.25;;;;;21.75;51.56;101019.06;4957696;28;47108;-57
2021/06/19 03:44:27;;;;;;;;;11.25;10.50;;;;;21.73;52.13;101006.75;4942835;28;45365;-57
2021/06/19 03:46:53;;;;;;;;;12.00;12.00;;;;;21.76;51.84;101011.94;4942690;28;45291;-57
2021/06/19 03:49:19;;;;;;;;;10.25;10.25;;;;;21.78;51.66;101006.50;4942762;28;45339;-58
2021/06/19 03:51:45;;;;;;;;;11.75;11.75;;;;;21.78;51.97;101002.00;4954168;28;47105;-58
2021/06/19 03:54:11;;;;;;;;;10.50;10.25;;;;;21.83;51.67;101001.72;4957693;28;45328;-57
2021/06/19 03:56:36;;;;;;;;;11.00;10.25;;;;;21.85;51.71;101007.88;4941349;28;45302;-58
2021/06/19 03:59:02;;;;;;;;;12.00;11.25;;;;;21.87;52.18;101009.50;4940439;28;45675;-56
2021/06/19 04:01:27;;;;;;;;;12.75;12.25;;;;;21.89;51.39;101004.91;4942528;28;45306;-58
2021/06/19 04:03:53;;;;;;;;;10.25;9.25;;;;;21.90;51.70;101014.66;4942552;28;45453;-57
2021/06/19 04:06:18;;;;;;;;;9.75;9.75;;;;;21.95;51.42;101018.88;4957225;28;45270;-57
2021/06/19 04:08:43;;;;;;;;;11.00;11.00;;;;;21.91;51.78;101000.34;4942668;28;45183;-58
2021/06/19 04:11:09;;;;;;;;;10.25;9.50;;;;;21.98;51.29;101010.69;4942265;28;45396;-57
2021/06/19 04:13:35;;;;;;;;;11.50;11.25;;;;;21.96;51.74;100999.19;4942433;28;45405;-56
2021/06/19 04:16:00;;;;;;;;;10.00;10.00;;;;;22.01;51.75;100998.00;4942358;28;45295;-57
2021/06/19 04:18:26;;;;;;;;;11.00;10.75;;;;;22.04;51.56;100997.81;4942396;28;45435;-58
2021/06/19 04:20:51;;;;;;;;;15.00;11.75;;;;;22.04;52.12;100999.63;4941902;28;45907;-58
2021/06/19 04:23:17;;;;;;;;;10.75;10.75;;;;;22.06;51.79;101001.28;4942627;28;45419;-57
2021/06/19 04:25:42;;;;;;;;;12.25;12.25;;;;;22.08;52.14;101007.38;4942277;28;46038;-57
2021/06/19 04:28:07;;;;;;;;;11.50;11.00;;;;;22.08;51.99;101010.03;4941964;28;45492;-58
2021/06/19 04:30:33;;;;;;;;;13.25;11.00;;;;;22.12;51.93;101010.72;4942054;28;46186;-57
2021/06/19 04:32:59;;;;;;;;;10.00;10.00;;;;;22.15;51.92;101005.22;4940919;28;45377;-57
2021/06/19 04:35:26;;;;;;;;;13.00;11.50;;;;;22.18;51.77;101001.50;4940662;28;45392;-58
2021/06/19 04:37:56;;;;;;;;;13.75;11.25;;;;;22.20;52.00;101007.59;4942038;28;45496;-58
2021/06/19 04:42:57;;;;;;;;;9.75;9.75;;;;;22.23;52.12;101028.84;4941847;28;45524;-57
2021/06/19 04:45:24;;;;;;;;;11.50;10.00;;;;;22.22;51.82;101006.56;4942044;28;45290;-57
2021/06/19 04:47:50;;;;;;;;;13.00;13.00;;;;;22.27;52.28;101006.28;4956596;28;45472;-57
2021/06/19 04:50:15;;;;;;;;;12.50;12.50;;;;;22.29;51.48;101003.53;4940268;28;45393;-58
2021/06/19 04:52:42;;;;;;;;;12.00;11.50;;;;;22.37;51.95;101020.03;4941936;28;45252;-57
2021/06/19 04:55:14;;;;;;;;;14.00;12.75;;;;;22.39;51.92;101019.00;4941989;28;45334;-57
2021/06/19 04:57:40;;;;;;;;;13.00;12.00;;;;;22.43;51.99;101018.78;4941363;28;45357;-57
2021/06/19 05:00:06;;;;;;;;;15.50;14.50;;;;;22.47;51.83;101025.72;4941597;28;45241;-57
2021/06/19 05:02:32;;;;;;;;;14.25;12.00;;;;;22.50;51.66;101018.34;4941736;28;45270;-57
2021/06/19 05:04:57;;;;;;;;;12.00;11.25;;;;;22.53;51.54;101022.66;4943865;28;45233;-57
2021/06/19 05:07:22;;;;;;;;;13.00;13.00;;;;;22.58;51.92;101025.03;4940197;28;45735;-58
2021/06/19 05:09:48;;;;;;;;;13.25;13.25;;;;;22.61;51.55;101023.03;4941346;28;46157;-58
2021/06/19 05:12:13;;;;;;;;;12.00;12.00;;;;;22.65;52.08;101027.25;4941484;28;45390;-57
2021/06/19 05:14:38;;;;;;;;;12.75;12.75;;;;;22.68;51.65;101034.28;4941680;28;45453;-58
2021/06/19 05:17:04;;;;;;;;;17.75;13.25;;;;;22.71;51.75;101039.41;4941483;28;45362;-58
2021/06/19 05:19:30;;;;;;;;;16.75;15.25;;;;;22.73;52.10;101035.69;4941135;28;46289;-58
2021/06/19 05:21:55;;;;;;;;;12.25;12.25;;;;;22.76;51.73;101031.97;4941279;28;45315;-57
2021/06/19 05:24:21;;;;;;;;;13.75;13.75;;;;;22.79;52.14;101039.84;4940095;28;45278;-58
2021/06/19 05:26:47;;;;;;;;;13.50;13.50;;;;;22.81;52.02;101037.06;4941302;28;45309;-58
2021/06/19 05:29:13;;;;;;;;;16.75;15.00;;;;;22.82;51.74;101033.41;4940915;28;46600;-58
2021/06/19 05:31:38;;;;;;;;;15.25;12.50;;;;;22.88;51.99;101043.78;4941344;28;45372;-57
2021/06/19 05:34:03;;;;;;;;;13.25;13.25;;;;;22.89;51.97;101030.28;4940036;28;45271;-58
2021/06/19 05:36:29;;;;;;;;;17.00;15.00;;;;;22.94;52.04;101032.63;4940125;28;45365;-57
2021/06/19 05:38:54;;;;;;;;;17.00;17.00;;;;;22.98;51.73;101039.56;4940823;28;46021;-57
2021/06/19 05:41:20;;;;;;;;;15.25;14.75;;;;;23.01;51.71;101028.63;4941404;28;45259;-58
2021/06/19 05:43:46;;;;;;;;;18.75;16.00;;;;;23.05;52.06;101016.75;4941016;28;45306;-57
2021/06/19 05:46:11;;;;;;;;;14.25;14.25;;;;;23.11;51.90;101017.38;4939935;28;45360;-45
2021/06/19 05:48:36;;;;;;;;;15.00;15.00;;;;;23.14;51.70;101012.63;4939490;28;46153;-46
2021/06/19 05:51:02;;;;;;;;;13.75;13.75;;;;;23.19;51.63;101010.59;4936425;28;45430;-48
2021/06/19 05:53:27;;;;;;;;;15.75;15.00;;;;;23.23;51.65;101008.56;4936630;28;45296;-46
2021/06/19 05:55:53;;;;;;;;;13.00;11.75;;;;;23.20;51.58;101004.25;4941178;28;45370;-47
2021/06/19 05:58:19;;;;;;;;;16.50;14.50;;;;;23.28;51.57;100998.44;4940696;28;46181;-46
2021/06/19 06:00:44;;;;;;;;;20.25;19.50;;;;;23.34;51.74;101000.69;4941198;28;45212;-46
2021/06/19 06:03:09;;;;;;;;;32.75;30.50;;;;;23.39;51.72;100999.56;4940907;28;45203;-46
2021/06/19 06:05:35;;;;;;;;;46.00;37.75;;;;;23.40;51.62;100990.56;4941078;28;45241;-49
2021/06/19 06:08:00;;;;;;;;;45.00;36.75;;;;;23.45;51.37;101000.00;4942152;28;45388;-48
2021/06/19 06:10:29;;;;;;;;;41.00;33.75;;;;;23.48;51.49;100998.94;4950101;28;45339;-49
2021/06/19 06:12:56;;;;;;;;;44.75;37.25;;;;;23.49;51.04;100996.16;4940653;28;45423;-45
2021/06/19 06:15:23;;;;;;;;;36.50;33.00;;;;;23.53;51.22;100991.47;4939496;28;45482;-46
2021/06/19 06:17:48;;;;;;;;;31.25;27.25;;;;;23.58;51.31;100989.34;4940523;28;45380;-46
2021/06/19 06:20:14;;;;;;;;;28.00;26.00;;;;;23.60;51.36;100982.06;4940506;28;45282;-49
2021/06/19 06:22:39;;;;;;;;;28.50;26.50;;;;;23.65;51.22;100996.03;4942166;28;45218;-46
2021/06/19 06:25:05;;;;;;;;;24.00;24.00;;;;;23.67;51.04;100994.13;4944065;28;45215;-48
2021/06/19 06:27:31;;;;;;;;;21.00;21.00;;;;;23.67;50.91;100987.88;4942126;28;47266;-46
2021/06/19 06:29:56;;;;;;;;;19.75;19.00;;;;;23.75;51.14;100990.03;4944056;28;45223;-51
2021/06/19 06:32:21;;;;;;;;;19.25;19.25;;;;;23.79;51.23;100995.13;4942338;28;45361;-45
2021/06/19 06:34:47;;;;;;;;;19.25;17.25;;;;;23.84;51.30;101005.56;4942065;28;45287;-48
2021/06/19 06:37:12;;;;;;;;;20.25;19.50;;;;;23.88;51.18;101008.91;4943309;28;45354;-47
2021/06/19 06:39:38;;;;;;;;;49.00;41.00;;;;;23.89;50.88;101003.44;4939465;28;45417;-48
2021/06/19 06:42:04;;;;;;;;;20.75;19.50;;;;;23.93;51.13;101006.81;4943415;28;45422;-47
2021/06/19 06:44:29;;;;;;;;;27.50;23.00;;;;;23.97;50.99;101017.22;4943607;28;45342;-49
2021/06/19 06:46:55;;;;;;;;;21.00;20.00;;;;;24.01;50.92;101007.13;4941985;28;46904;-49
2021/06/19 06:49:20;;;;;;;;;23.75;20.25;;;;;24.05;51.08;101007.78;4943660;28;45337;-48
2021/06/19 06:51:46;;;;;;;;;19.25;19.25;;;;;24.11;50.85;101018.13;4943471;28;45261;-48
2021/06/19 06:54:11;;;;;;;;;14.75;13.75;;;;;24.12;50.47;101019.84;4942192;28;45558;-45
2021/06/19 06:56:36;;;;;;;;;17.00;15.25;;;;;24.17;50.80;101025.75;4943167;28;46319;-47
2021/06/19 06:59:02;;;;;;;;;17.00;16.25;;;;;24.21;50.75;101029.09;4943139;28;45314;-51
2021/06/19 07:01:28;;;;;;;;;17.25;13.50;;;;;24.25;50.67;101027.94;4943468;28;45360;-47
2021/06/19 07:03:58;;;;;;;;;19.75;18.00;;;;;24.28;50.44;101033.97;4943576;28;45349;-45
2021/06/19 07:06:23;;;;;;;;;18.25;15.50;;;;;24.31;50.56;101032.88;4942875;28;46149;-45
2021/06/19 07:08:49;;;;;;;;;19.00;16.00;;;;;24.33;50.43;101030.97;4943128;28;45504;-46
2021/06/19 07:11:14;;;;;;;;;14.50;14.00;;;;;24.38;50.72;101025.28;4943208;28;45318;-46
2021/06/19 07:13:40;;;;;;;;;16.50;15.50;;;;;24.43;50.43;101028.53;4943197;28;45318;-46
2021/06/19 07:16:07;;;;;;;;;13.50;12.00;;;;;24.43;50.47;101009.72;4943098;28;46288;-47
2021/06/19 07:18:32;;;;;;;;;17.00;14.50;;;;;24.44;50.33;101006.06;4942998;28;45344;-47
2021/06/19 07:20:58;;;;;;;;;16.25;14.00;;;;;24.50;50.38;101011.00;4957578;28;45369;-47
2021/06/19 07:23:25;;;;;;;;;13.75;13.75;;;;;24.52;50.17;101013.59;4943192;28;45446;-46
2021/06/19 07:25:52;;;;;;;;;14.75;13.75;;;;;24.57;50.45;101015.00;4942837;28;46151;-46
2021/06/19 07:28:17;;;;;;;;;13.25;11.50;;;;;24.63;50.31;101011.88;4942667;28;45304;-47
2021/06/19 07:30:42;;;;;;;;;15.75;14.75;;;;;24.66;50.06;101006.31;4942869;28;45243;-49
2021/06/19 07:33:08;;;;;;;;;13.25;12.50;;;;;24.73;50.57;101001.41;4942554;28;45220;-49
2021/06/19 07:35:33;;;;;;;;;16.00;14.25;;;;;24.78;50.00;100976.88;4941739;28;46182;-47
2021/06/19 07:37:58;;;;;;;;;12.50;12.00;;;;;24.84;50.17;100973.75;4941646;28;45342;-52
2021/06/19 07:40:25;;;;;;;;;11.00;11.00;;;;;24.90;50.11;100964.41;4942863;28;45266;-53
2021/06/19 07:42:50;;;;;;;;;14.25;13.25;;;;;24.96;50.47;100951.38;4942798;28;45448;-53
2021/06/19 07:45:16;;;;;;;;;12.25;11.00;;;;;25.01;50.04;100926.03;4941138;28;46385;-52
2021/06/19 07:47:41;;;;;;;;;11.00;11.00;;;;;25.10;51.34;100902.00;4942777;28;45341;-50
2021/06/19 07:50:07;;;;;;;;;12.50;12.00;;;;;25.23;51.53;100911.84;4942755;28;45267;-53
2021/06/19 07:52:32;;;;;;;;;14.50;9.00;;;;;25.41;51.67;100917.75;4942479;28;45468;-54
2021/06/19 07:54:59;;;;;;;;;10.50;8.75;;;;;25.66;51.24;100927.53;4942558;28;45441;-58
2021/06/19 07:57:24;;;;;;;;;9.25;9.25;;;;;25.99;51.46;100947.47;4942398;28;45218;-58
2021/06/19 07:59:49;;;;;;;;;9.00;9.00;;;;;26.28;50.46;100945.25;4942536;28;45191;-58
2021/06/19 08:02:15;;;;;;;;;8.50;8.00;;;;;26.57;50.01;100949.34;4942425;28;45224;-58
2021/06/19 08:04:40;;;;;;;;;9.50;8.50;;;;;26.71;49.12;100941.03;4942374;28;45458;-58
2021/06/19 08:07:06;;;;;;;;;10.25;9.00;;;;;26.78;48.98;100944.13;4942240;28;45413;-58
2021/06/19 08:09:31;;;;;;;;;9.00;9.00;;;;;26.82;49.02;100939.34;4942440;28;45275;-58
2021/06/19 08:11:58;;;;;;;;;9.00;8.00;;;;;26.77;49.06;100916.31;4942225;28;45647;-59
2021/06/19 08:14:23;;;;;;;;;8.50;8.50;;;;;26.73;49.22;100905.88;4941958;28;45326;-58
2021/06/19 08:16:54;;;;;;;;;9.75;9.00;;;;;26.65;48.86;100892.16;4940857;28;45361;-58
2021/06/19 08:19:20;;;;;;;;;10.50;9.25;;;;;26.61;48.91;100876.22;4939282;28;45460;-63
2021/06/19 08:21:45;;;;;;;;;10.00;8.75;;;;;26.63;48.99;100880.63;4936714;28;45608;-61
2021/06/19 08:24:11;;;;;;;;;8.00;7.00;;;;;26.58;48.89;100891.78;4941057;28;46156;-61
2021/06/19 08:26:37;;;;;;;;;10.25;8.25;;;;;26.52;49.31;100890.44;4940505;28;45357;-61
2021/06/19 08:29:07;;;;;;;;;10.50;9.25;;;;;26.59;49.03;100926.69;4941122;28;45469;-61
2021/06/19 08:31:39;;;;;;;;;8.50;8.50;;;;;26.60;48.70;100944.59;4941788;28;45571;-62
2021/06/19 08:34:06;;;;;;;;;8.00;8.00;;;;;26.60;48.60;100938.31;4941492;28;46073;-62
2021/06/19 08:36:31;;;;;;;;;8.50;8.50;;;;;26.69;49.13;100916.06;4939238;28;45538;-61
2021/06/19 08:38:58;;;;;;;;;11.25;10.00;;;;;26.71;48.45;100905.13;4941644;28;45311;-62
2021/06/19 08:41:23;;;;;;;;;10.75;8.50;;;;;26.68;48.85;100898.16;4939281;28;45450;-61
2021/06/19 08:43:49;;;;;;;;;7.75;7.75;;;;;26.69;48.38;100897.19;4941046;28;45451;-61
2021/06/19 08:46:19;;;;;;;;;9.75;9.25;;;;;26.57;48.22;100898.16;4941409;28;45409;-62
2021/06/19 08:48:47;;;;;;;;;10.50;7.50;;;;;26.44;49.07;100898.28;4941521;28;45345;-62
2021/06/19 08:51:13;;;;;;;;;8.25;8.25;;;;;26.27;49.38;100896.91;4940868;28;45630;-62
2021/06/19 08:53:38;;;;;;;;;7.50;7.25;;;;;26.13;49.34;100880.97;4955822;28;47280;-62
2021/06/19 08:56:04;;;;;;;;;8.50;8.50;;;;;26.18;49.75;100884.16;4956315;28;45289;-63
2021/06/19 08:58:29;;;;;;;;;11.00;11.00;;;;;26.19;49.61;100875.09;4941517;28;45427;-62
2021/06/19 09:00:54;;;;;;;;;11.00;11.00;;;;;26.14;49.57;100861.13;4940365;28;45492;-62
2021/06/19 09:03:21;;;;;;;;;10.50;10.00;;;;;26.13;49.64;100871.06;4940726;28;45980;-63
2021/06/19 09:05:47;;;;;;;;;11.00;11.00;;;;;26.18;49.62;100858.09;4941129;28;45389;-63
2021/06/19 09:08:12;;;;;;;;;11.75;10.75;;;;;26.32;49.71;100861.53;4941360;28;45401;-62
2021/06/19 09:10:38;;;;;;;;;10.75;10.75;;;;;26.44;49.36;100857.88;4941120;28;45616;-62
2021/06/19 09:13:18;;;;;;;;;12.75;11.00;;;;;26.67;49.30;100865.94;4955507;28;48625;-63
2021/06/19 09:15:48;;;;;;;;;10.00;10.00;;;;;26.91;49.04;100860.44;4956272;28;45416;-62
2021/06/19 09:18:23;;;;;;;;;11.25;11.25;;;;;27.15;48.76;100867.50;4941076;28;45493;-62
2021/06/19 09:21:01;;;;;;;;;12.50;11.50;;;;;27.40;48.51;100869.88;4940667;28;45334;-62
2021/06/19 09:23:26;;;;;;;;;10.00;8.75;;;;;27.67;48.26;100875.78;4940965;28;46107;-62
2021/06/19 09:26:12;;;;;;;;;10.00;8.00;;;;;27.93;47.74;100870.03;4940826;28;45270;-62
2021/06/19 09:29:16;;;;;;;;;9.50;9.50;;;;;28.11;47.14;100875.69;4940284;28;45432;-62
2021/06/19 09:31:52;;;;;;;;;12.25;11.25;;;;;28.18;46.40;100871.47;4941039;28;45408;-62
2021/06/19 09:34:24;;;;;;;;;11.50;11.50;;;;;28.29;46.31;100873.22;4940248;28;45492;-63
2021/06/19 09:36:53;;;;;;;;;11.00;9.25;;;;;28.43;46.54;100875.59;4939425;28;45467;-62
2021/06/19 09:39:25;;;;;;;;;9.75;9.25;;;;;28.65;46.09;100862.88;4939604;28;45279;-63
2021/06/19 09:42:02;;;;;;;;;11.25;9.00;;;;;29.01;45.79;100874.94;4940814;28;45434;-62
2021/06/19 09:44:42;;;;;;;;;11.00;10.00;;;;;29.34;44.97;100881.00;4940822;28;45454;-63
2021/06/19 09:47:12;;;;;;;;;10.00;8.50;;;;;29.66;44.55;100865.47;4939345;28;45433;-64
2021/06/19 09:49:40;;;;;;;;;11.50;11.50;;;;;29.87;43.98;100867.19;4955800;28;45400;-63
2021/06/19 09:52:06;;;;;;;;;10.25;10.25;;;;;29.88;43.63;100863.50;4940476;28;45181;-63
2021/06/19 09:54:40;;;;;;;;;10.25;10.00;;;;;30.09;43.68;100858.75;4939092;28;47069;-62
2021/06/19 09:57:13;;;;;;;;;10.25;10.00;;;;;30.32;43.29;100852.97;4929985;28;45369;-63
2021/06/19 09:59:39;;;;;;;;;10.50;9.75;;;;;30.40;43.00;100855.81;4943887;28;45365;-63
2021/06/19 10:02:23;;;;;;;;;7.50;7.50;;;;;30.46;42.39;100862.47;4938327;28;45232;-62
2021/06/19 10:04:56;;;;;;;;;10.25;10.25;;;;;30.44;43.03;100856.34;4942356;28;45295;-62
2021/06/19 10:07:23;;;;;;;;;10.50;8.50;;;;;30.52;42.35;100853.78;4955732;28;45466;-62
2021/06/19 10:09:50;;;;;;;;;10.50;9.50;;;;;30.66;42.71;100847.00;4943594;28;45307;-62
2021/06/19 10:12:21;;;;;;;;;12.00;10.50;;;;;30.77;42.50;100844.09;4943932;28;45240;-62
2021/06/19 10:14:48;;;;;;;;;8.25;8.25;;;;;30.91;42.41;100841.88;4943461;28;46988;-61
2021/06/19 10:17:16;;;;;;;;;8.00;8.00;;;;;30.91;42.50;100834.59;4944097;28;45325;-62
2021/06/19 10:19:43;;;;;;;;;10.25;10.25;;;;;30.85;41.93;100834.34;4943334;28;45294;-62
2021/06/19 10:22:09;;;;;;;;;12.00;10.75;;;;;30.86;41.82;100823.34;4943532;28;45612;-62
2021/06/19 10:24:37;;;;;;;;;10.25;9.50;;;;;30.96;42.22;100820.56;4943456;28;46424;-61
2021/06/19 10:27:02;;;;;;;;;8.00;8.00;;;;;31.04;41.92;100827.94;4943510;28;45463;-62
2021/06/19 10:29:29;;;;;;;;;10.00;8.75;;;;;31.27;41.60;100823.78;4942988;28;45444;-61
2021/06/19 10:31:55;;;;;;;;;10.00;10.00;;;;;31.47;40.54;100825.47;4943838;28;45299;-61
2021/06/19 10:34:32;;;;;;;;;9.00;9.00;;;;;31.47;40.12;100814.63;4942987;28;45416;-62
2021/06/19 10:37:04;;;;;;;;;12.75;12.25;;;;;31.67;40.18;100815.31;4943204;28;45343;-62
2021/06/19 10:39:32;;;;;;;;;9.75;9.75;;;;;32.13;40.97;100812.41;4939142;28;45283;-62
2021/06/19 10:41:58;;;;;;;;;11.00;11.00;;;;;35.07;38.96;100802.63;4954296;28;45571;-62
2021/06/19 10:44:54;;;;;;;;;10.50;10.50;;;;;39.39;34.68;100807.47;4943546;28;46235;-62
2021/06/19 10:47:28;;;;;;;;;11.75;10.75;;;;;42.82;29.97;100796.69;4943367;28;45393;-63
2021/06/19 10:49:54;;;;;;;;;9.50;9.00;;;;;45.41;26.34;100797.50;4943084;28;45266;-63
2021/06/19 10:52:32;;;;;;;;;9.25;8.00;;;;;46.86;24.51;100794.69;4941957;28;45809;-61
2021/06/19 10:55:26;;;;;;;;;9.50;9.00;;;;;49.09;21.09;100789.91;4943032;28;46262;-61
2021/06/19 10:57:53;;;;;;;;;12.25;9.75;;;;;50.50;19.38;100789.22;4938202;28;45508;-61
2021/06/19 11:00:29;;;;;;;;;11.50;9.50;;;;;52.22;18.17;100778.03;4943187;28;45301;-62
2021/06/19 11:02:57;;;;;;;;;11.00;9.00;;;;;54.05;15.49;100774.22;4932572;28;45397;-61
2021/06/19 11:05:41;;;;;;;;;7.75;6.25;;;;;56.30;15.50;100775.28;4941476;28;45311;-62
2021/06/19 11:08:17;;;;;;;;;7.50;7.50;;;;;58.53;12.72;100778.13;4942513;28;45402;-62
2021/06/19 11:10:49;;;;;;;;;9.00;8.00;;;;;60.24;12.20;100774.09;4943156;28;45337;-62
2021/06/19 11:13:41;;;;;;;;;9.25;8.75;;;;;62.05;10.37;100761.66;4941975;28;45609;-62
2021/06/19 11:16:32;;;;;;;;;7.00;7.00;;;;;62.53;9.71;100756.53;4940857;28;46394;-62
2021/06/19 11:18:58;;;;;;;;;5.50;5.50;;;;;61.31;14.46;100745.38;4942089;28;45385;-59
2021/06/19 11:21:33;;;;;;;;;6.50;6.50;;;;;55.49;19.50;100727.59;4942656;28;45235;-69